sensor_id;sensor_type;location;lat;lon;timestamp;P1;durP1;ratioP1;P2;durP2;ratioP2
11344;SDS011;5727;42.600;23.028;2022-10-30T00:00:43;21.83;;;13.90;;
11344;SDS011;5727;42.600;23.028;2022-10-30T00:03:11;18.50;;;13.23;;
11344;SDS011;5727;42.600;23.028;2022-10-30T00:05:39;20.97;;;14.10;;
11344;SDS011;5727;42.600;23.028;2022-10-30T00:08:08;21.53;;;12.80;;
11344;SDS011;5727;42.600;23.028;2022-10-30T00:10:36;21.67;;;13.90;;
11344;SDS011;5727;42.600;23.028;2022-10-30T00:13:02;19.23;;;13.50;;
11344;SDS011;5727;42.600;23.028;2022-10-30T00:15:31;20.27;;;13.00;;
11344;SDS011;5727;42.600;23.028;2022-10-30T00:17:57;23.37;;;14.07;;
11344;SDS011;5727;42.600;23.028;2022-10-30T00:20:24;21.17;;;13.73;;
11344;SDS011;5727;42.600;23.028;2022-10-30T00:22:51;21.93;;;13.20;;
11344;SDS011;5727;42.600;23.028;2022-10-30T00:25:18;23.53;;;13.90;;
11344;SDS011;5727;42.600;23.028;2022-10-30T00:27:44;20.50;;;14.17;;
11344;SDS011;5727;42.600;23.028;2022-10-30T00:30:11;22.00;;;14.97;;
11344;SDS011;5727;42.600;23.028;2022-10-30T00:32:41;22.07;;;14.50;;
11344;SDS011;5727;42.600;23.028;2022-10-30T00:35:08;23.80;;;14.73;;
11344;SDS011;5727;42.600;23.028;2022-10-30T00:37:35;20.53;;;14.70;;
11344;SDS011;5727;42.600;23.028;2022-10-30T00:40:01;23.97;;;14.57;;
11344;SDS011;5727;42.600;23.028;2022-10-30T00:42:29;23.57;;;14.40;;
11344;SDS011;5727;42.600;23.028;2022-10-30T00:44:56;20.47;;;13.97;;
11344;SDS011;5727;42.600;23.028;2022-10-30T00:47:24;22.93;;;15.13;;
11344;SDS011;5727;42.600;23.028;2022-10-30T00:49:58;20.30;;;14.93;;
11344;SDS011;5727;42.600;23.028;2022-10-30T00:52:29;22.13;;;15.13;;
11344;SDS011;5727;42.600;23.028;2022-10-30T00:55:00;23.03;;;15.30;;
11344;SDS011;5727;42.600;23.028;2022-10-30T00:57:29;22.47;;;15.60;;
11344;SDS011;5727;42.600;23.028;2022-10-30T00:59:55;29.13;;;17.50;;
11344;SDS011;5727;42.600;23.028;2022-10-30T01:02:22;22.40;;;15.90;;
11344;SDS011;5727;42.600;23.028;2022-10-30T01:04:49;18.83;;;14.27;;
11344;SDS011;5727;42.600;23.028;2022-10-30T01:07:19;19.50;;;13.90;;
11344;SDS011;5727;42.600;23.028;2022-10-30T01:09:46;23.70;;;15.07;;
11344;SDS011;5727;42.600;23.028;2022-10-30T01:12:30;20.13;;;13.93;;
11344;SDS011;5727;42.600;23.028;2022-10-30T01:14:57;26.07;;;14.53;;
11344;SDS011;5727;42.600;23.028;2022-10-30T01:20:42;20.50;;;13.03;;
11344;SDS011;5727;42.600;23.028;2022-10-30T01:23:29;21.20;;;13.33;;
11344;SDS011;5727;42.600;23.028;2022-10-30T01:26:06;19.77;;;13.57;;
11344;SDS011;5727;42.600;23.028;2022-10-30T01:28:43;16.27;;;13.53;;
11344;SDS011;5727;42.600;23.028;2022-10-30T01:31:32;24.17;;;14.47;;
11344;SDS011;5727;42.600;23.028;2022-10-30T01:34:10;20.00;;;13.33;;
11344;SDS011;5727;42.600;23.028;2022-10-30T01:36:45;20.83;;;12.77;;
11344;SDS011;5727;42.600;23.028;2022-10-30T01:39:19;17.83;;;12.63;;
11344;SDS011;5727;42.600;23.028;2022-10-30T01:41:47;23.23;;;12.80;;
11344;SDS011;5727;42.600;23.028;2022-10-30T01:44:15;19.47;;;11.97;;
11344;SDS011;5727;42.600;23.028;2022-10-30T01:46:50;21.90;;;12.90;;
11344;SDS011;5727;42.600;23.028;2022-10-30T01:49:33;21.10;;;13.53;;
11344;SDS011;5727;42.600;23.028;2022-10-30T01:52:25;16.60;;;12.77;;
11344;SDS011;5727;42.600;23.028;2022-10-30T01:54:58;18.33;;;12.93;;
11344;SDS011;5727;42.600;23.028;2022-10-30T01:57:33;22.10;;;13.87;;
11344;SDS011;5727;42.600;23.028;2022-10-30T02:00:05;23.07;;;14.50;;
11344;SDS011;5727;42.600;23.028;2022-10-30T02:02:34;18.77;;;13.50;;
11344;SDS011;5727;42.600;23.028;2022-10-30T02:05:01;18.90;;;12.77;;
11344;SDS011;5727;42.600;23.028;2022-10-30T02:07:28;19.70;;;14.00;;
11344;SDS011;5727;42.600;23.028;2022-10-30T02:09:55;16.13;;;12.00;;
11344;SDS011;5727;42.600;23.028;2022-10-30T02:12:23;16.73;;;12.47;;
11344;SDS011;5727;42.600;23.028;2022-10-30T02:14:51;21.07;;;13.20;;
11344;SDS011;5727;42.600;23.028;2022-10-30T02:17:20;17.20;;;13.50;;
11344;SDS011;5727;42.600;23.028;2022-10-30T02:19:47;20.53;;;14.03;;
11344;SDS011;5727;42.600;23.028;2022-10-30T02:22:15;22.33;;;13.87;;
11344;SDS011;5727;42.600;23.028;2022-10-30T02:24:42;17.67;;;13.83;;
11344;SDS011;5727;42.600;23.028;2022-10-30T02:27:09;24.83;;;14.37;;
11344;SDS011;5727;42.600;23.028;2022-10-30T02:29:36;21.73;;;14.50;;
11344;SDS011;5727;42.600;23.028;2022-10-30T02:32:03;16.37;;;13.10;;
11344;SDS011;5727;42.600;23.028;2022-10-30T02:34:30;18.87;;;13.87;;
11344;SDS011;5727;42.600;23.028;2022-10-30T02:36:56;18.90;;;13.40;;
11344;SDS011;5727;42.600;23.028;2022-10-30T02:39:24;17.43;;;12.87;;
11344;SDS011;5727;42.600;23.028;2022-10-30T02:41:51;20.43;;;13.90;;
11344;SDS011;5727;42.600;23.028;2022-10-30T02:44:18;19.80;;;13.40;;
11344;SDS011;5727;42.600;23.028;2022-10-30T02:46:44;18.57;;;13.50;;
11344;SDS011;5727;42.600;23.028;2022-10-30T02:49:11;20.80;;;13.37;;
11344;SDS011;5727;42.600;23.028;2022-10-30T02:51:38;24.47;;;12.97;;
11344;SDS011;5727;42.600;23.028;2022-10-30T02:54:05;21.50;;;14.40;;
11344;SDS011;5727;42.600;23.028;2022-10-30T02:56:33;21.33;;;14.30;;
11344;SDS011;5727;42.600;23.028;2022-10-30T02:58:59;17.30;;;13.50;;
11344;SDS011;5727;42.600;23.028;2022-10-30T03:01:44;22.13;;;14.23;;
11344;SDS011;5727;42.600;23.028;2022-10-30T03:04:10;21.67;;;14.73;;
11344;SDS011;5727;42.600;23.028;2022-10-30T03:06:37;17.13;;;14.00;;
11344;SDS011;5727;42.600;23.028;2022-10-30T03:09:04;22.73;;;14.23;;
11344;SDS011;5727;42.600;23.028;2022-10-30T03:11:32;16.43;;;12.77;;
11344;SDS011;5727;42.600;23.028;2022-10-30T03:14:00;17.93;;;13.17;;
11344;SDS011;5727;42.600;23.028;2022-10-30T03:16:27;18.57;;;13.40;;
11344;SDS011;5727;42.600;23.028;2022-10-30T03:18:55;19.83;;;12.93;;
11344;SDS011;5727;42.600;23.028;2022-10-30T03:21:23;19.83;;;13.93;;
11344;SDS011;5727;42.600;23.028;2022-10-30T03:23:51;15.00;;;12.93;;
11344;SDS011;5727;42.600;23.028;2022-10-30T03:26:18;20.27;;;13.57;;
11344;SDS011;5727;42.600;23.028;2022-10-30T03:28:46;20.20;;;14.07;;
11344;SDS011;5727;42.600;23.028;2022-10-30T03:31:14;17.17;;;12.60;;
11344;SDS011;5727;42.600;23.028;2022-10-30T03:33:41;18.97;;;13.63;;
11344;SDS011;5727;42.600;23.028;2022-10-30T03:36:09;17.70;;;13.33;;
11344;SDS011;5727;42.600;23.028;2022-10-30T03:38:37;22.73;;;14.23;;
11344;SDS011;5727;42.600;23.028;2022-10-30T03:41:04;17.40;;;13.63;;
11344;SDS011;5727;42.600;23.028;2022-10-30T03:43:31;15.80;;;13.23;;
11344;SDS011;5727;42.600;23.028;2022-10-30T03:46:00;17.90;;;14.10;;
11344;SDS011;5727;42.600;23.028;2022-10-30T03:48:27;19.47;;;13.80;;
11344;SDS011;5727;42.600;23.028;2022-10-30T03:50:55;19.37;;;14.50;;
11344;SDS011;5727;42.600;23.028;2022-10-30T03:53:22;19.77;;;13.50;;
11344;SDS011;5727;42.600;23.028;2022-10-30T03:55:50;19.73;;;13.73;;
11344;SDS011;5727;42.600;23.028;2022-10-30T03:58:17;19.33;;;12.73;;
11344;SDS011;5727;42.600;23.028;2022-10-30T04:00:44;15.47;;;13.67;;
11344;SDS011;5727;42.600;23.028;2022-10-30T04:03:13;22.20;;;13.33;;
11344;SDS011;5727;42.600;23.028;2022-10-30T04:05:39;20.60;;;13.40;;
11344;SDS011;5727;42.600;23.028;2022-10-30T04:08:08;17.40;;;12.93;;
11344;SDS011;5727;42.600;23.028;2022-10-30T04:10:40;18.67;;;13.43;;
11344;SDS011;5727;42.600;23.028;2022-10-30T04:13:08;16.93;;;12.53;;
11344;SDS011;5727;42.600;23.028;2022-10-30T04:15:36;19.23;;;13.53;;
11344;SDS011;5727;42.600;23.028;2022-10-30T04:18:03;20.27;;;14.00;;
11344;SDS011;5727;42.600;23.028;2022-10-30T04:20:31;20.70;;;13.43;;
11344;SDS011;5727;42.600;23.028;2022-10-30T04:22:59;18.30;;;14.17;;
11344;SDS011;5727;42.600;23.028;2022-10-30T04:25:28;18.73;;;14.57;;
11344;SDS011;5727;42.600;23.028;2022-10-30T04:27:55;14.93;;;12.80;;
11344;SDS011;5727;42.600;23.028;2022-10-30T04:30:22;17.20;;;13.90;;
11344;SDS011;5727;42.600;23.028;2022-10-30T04:32:50;22.33;;;15.30;;
11344;SDS011;5727;42.600;23.028;2022-10-30T04:35:18;22.83;;;15.30;;
11344;SDS011;5727;42.600;23.028;2022-10-30T04:37:52;26.80;;;15.53;;
11344;SDS011;5727;42.600;23.028;2022-10-30T04:40:19;21.57;;;14.10;;
11344;SDS011;5727;42.600;23.028;2022-10-30T04:42:46;19.90;;;14.97;;
11344;SDS011;5727;42.600;23.028;2022-10-30T04:45:13;19.80;;;14.57;;
11344;SDS011;5727;42.600;23.028;2022-10-30T04:47:40;20.00;;;14.20;;
11344;SDS011;5727;42.600;23.028;2022-10-30T04:50:07;16.30;;;12.80;;
11344;SDS011;5727;42.600;23.028;2022-10-30T04:52:34;21.30;;;13.67;;
11344;SDS011;5727;42.600;23.028;2022-10-30T04:55:02;24.23;;;14.37;;
11344;SDS011;5727;42.600;23.028;2022-10-30T04:57:30;24.00;;;13.30;;
11344;SDS011;5727;42.600;23.028;2022-10-30T04:59:57;23.13;;;13.33;;
11344;SDS011;5727;42.600;23.028;2022-10-30T05:02:24;24.37;;;13.60;;
11344;SDS011;5727;42.600;23.028;2022-10-30T05:04:50;23.73;;;13.20;;
11344;SDS011;5727;42.600;23.028;2022-10-30T05:07:17;18.73;;;13.67;;
11344;SDS011;5727;42.600;23.028;2022-10-30T05:09:44;16.97;;;13.17;;
11344;SDS011;5727;42.600;23.028;2022-10-30T05:12:12;21.07;;;13.23;;
11344;SDS011;5727;42.600;23.028;2022-10-30T05:14:40;26.83;;;13.80;;
11344;SDS011;5727;42.600;23.028;2022-10-30T05:17:07;24.10;;;14.97;;
11344;SDS011;5727;42.600;23.028;2022-10-30T05:19:34;22.97;;;14.50;;
11344;SDS011;5727;42.600;23.028;2022-10-30T05:22:00;24.57;;;13.60;;
11344;SDS011;5727;42.600;23.028;2022-10-30T05:24:27;22.07;;;13.97;;
11344;SDS011;5727;42.600;23.028;2022-10-30T05:26:54;20.83;;;14.13;;
11344;SDS011;5727;42.600;23.028;2022-10-30T05:29:22;22.50;;;13.97;;
11344;SDS011;5727;42.600;23.028;2022-10-30T05:31:48;20.37;;;14.40;;
11344;SDS011;5727;42.600;23.028;2022-10-30T05:34:15;19.63;;;14.63;;
11344;SDS011;5727;42.600;23.028;2022-10-30T05:36:42;26.67;;;15.30;;
11344;SDS011;5727;42.600;23.028;2022-10-30T05:39:09;23.70;;;15.33;;
11344;SDS011;5727;42.600;23.028;2022-10-30T05:41:35;24.43;;;15.60;;
11344;SDS011;5727;42.600;23.028;2022-10-30T05:44:02;24.70;;;16.50;;
11344;SDS011;5727;42.600;23.028;2022-10-30T05:46:30;26.60;;;16.07;;
11344;SDS011;5727;42.600;23.028;2022-10-30T05:48:57;30.43;;;17.40;;
11344;SDS011;5727;42.600;23.028;2022-10-30T05:51:24;28.33;;;18.20;;
11344;SDS011;5727;42.600;23.028;2022-10-30T05:53:51;22.33;;;17.03;;
11344;SDS011;5727;42.600;23.028;2022-10-30T05:56:18;27.97;;;16.23;;
11344;SDS011;5727;42.600;23.028;2022-10-30T05:58:44;22.23;;;15.17;;
11344;SDS011;5727;42.600;23.028;2022-10-30T06:01:13;22.93;;;16.30;;
11344;SDS011;5727;42.600;23.028;2022-10-30T06:03:41;22.10;;;14.77;;
11344;SDS011;5727;42.600;23.028;2022-10-30T06:06:08;18.27;;;14.40;;
11344;SDS011;5727;42.600;23.028;2022-10-30T06:08:35;20.40;;;15.43;;
11344;SDS011;5727;42.600;23.028;2022-10-30T06:11:02;26.73;;;15.40;;
11344;SDS011;5727;42.600;23.028;2022-10-30T06:13:28;19.70;;;13.87;;
11344;SDS011;5727;42.600;23.028;2022-10-30T06:15:55;22.00;;;13.60;;
11344;SDS011;5727;42.600;23.028;2022-10-30T06:18:22;21.17;;;14.03;;
11344;SDS011;5727;42.600;23.028;2022-10-30T06:20:50;23.93;;;14.30;;
11344;SDS011;5727;42.600;23.028;2022-10-30T06:23:19;20.27;;;13.83;;
11344;SDS011;5727;42.600;23.028;2022-10-30T06:25:46;21.13;;;12.70;;
11344;SDS011;5727;42.600;23.028;2022-10-30T06:28:13;21.20;;;13.83;;
11344;SDS011;5727;42.600;23.028;2022-10-30T06:30:40;34.50;;;14.90;;
11344;SDS011;5727;42.600;23.028;2022-10-30T06:33:06;32.17;;;15.17;;
11344;SDS011;5727;42.600;23.028;2022-10-30T06:35:34;24.77;;;14.53;;
11344;SDS011;5727;42.600;23.028;2022-10-30T06:38:03;25.97;;;15.97;;
11344;SDS011;5727;42.600;23.028;2022-10-30T06:40:29;31.47;;;17.03;;
11344;SDS011;5727;42.600;23.028;2022-10-30T06:42:56;25.63;;;16.03;;
11344;SDS011;5727;42.600;23.028;2022-10-30T06:45:23;26.83;;;16.87;;
11344;SDS011;5727;42.600;23.028;2022-10-30T06:47:50;26.97;;;17.03;;
11344;SDS011;5727;42.600;23.028;2022-10-30T06:50:18;32.83;;;16.80;;
11344;SDS011;5727;42.600;23.028;2022-10-30T06:52:46;32.60;;;17.60;;
11344;SDS011;5727;42.600;23.028;2022-10-30T06:55:15;29.87;;;18.10;;
11344;SDS011;5727;42.600;23.028;2022-10-30T06:57:42;31.57;;;17.20;;
11344;SDS011;5727;42.600;23.028;2022-10-30T07:00:09;33.87;;;18.17;;
11344;SDS011;5727;42.600;23.028;2022-10-30T07:02:37;32.40;;;18.87;;
11344;SDS011;5727;42.600;23.028;2022-10-30T07:05:04;29.90;;;18.40;;
11344;SDS011;5727;42.600;23.028;2022-10-30T07:07:31;30.10;;;18.60;;
11344;SDS011;5727;42.600;23.028;2022-10-30T07:09:58;31.87;;;17.50;;
11344;SDS011;5727;42.600;23.028;2022-10-30T07:12:26;38.00;;;19.27;;
11344;SDS011;5727;42.600;23.028;2022-10-30T07:14:53;30.50;;;17.23;;
11344;SDS011;5727;42.600;23.028;2022-10-30T07:17:20;29.93;;;17.33;;
11344;SDS011;5727;42.600;23.028;2022-10-30T07:19:46;30.20;;;17.87;;
11344;SDS011;5727;42.600;23.028;2022-10-30T07:22:13;36.63;;;18.73;;
11344;SDS011;5727;42.600;23.028;2022-10-30T07:24:40;28.97;;;17.70;;
11344;SDS011;5727;42.600;23.028;2022-10-30T07:27:06;31.20;;;17.43;;
11344;SDS011;5727;42.600;23.028;2022-10-30T07:29:34;37.87;;;18.17;;
11344;SDS011;5727;42.600;23.028;2022-10-30T07:32:01;31.27;;;17.30;;
11344;SDS011;5727;42.600;23.028;2022-10-30T07:34:28;28.33;;;18.73;;
11344;SDS011;5727;42.600;23.028;2022-10-30T07:36:55;31.17;;;17.40;;
11344;SDS011;5727;42.600;23.028;2022-10-30T07:39:22;31.13;;;18.53;;
11344;SDS011;5727;42.600;23.028;2022-10-30T07:41:48;34.83;;;18.30;;
11344;SDS011;5727;42.600;23.028;2022-10-30T07:44:15;24.40;;;14.33;;
11344;SDS011;5727;42.600;23.028;2022-10-30T07:46:43;32.33;;;16.50;;
11344;SDS011;5727;42.600;23.028;2022-10-30T07:49:10;39.27;;;17.43;;
11344;SDS011;5727;42.600;23.028;2022-10-30T07:51:37;29.17;;;17.57;;
11344;SDS011;5727;42.600;23.028;2022-10-30T07:54:03;33.13;;;18.13;;
11344;SDS011;5727;42.600;23.028;2022-10-30T07:56:30;34.33;;;17.17;;
11344;SDS011;5727;42.600;23.028;2022-10-30T07:58:57;33.57;;;17.23;;
11344;SDS011;5727;42.600;23.028;2022-10-30T08:01:24;30.13;;;16.73;;
11344;SDS011;5727;42.600;23.028;2022-10-30T08:03:52;22.60;;;15.37;;
11344;SDS011;5727;42.600;23.028;2022-10-30T08:06:18;28.70;;;16.20;;
11344;SDS011;5727;42.600;23.028;2022-10-30T08:08:45;19.30;;;14.37;;
11344;SDS011;5727;42.600;23.028;2022-10-30T08:11:12;26.33;;;15.10;;
11344;SDS011;5727;42.600;23.028;2022-10-30T08:13:38;26.63;;;15.33;;
11344;SDS011;5727;42.600;23.028;2022-10-30T08:16:05;25.00;;;14.63;;
11344;SDS011;5727;42.600;23.028;2022-10-30T08:18:32;20.97;;;11.20;;
11344;SDS011;5727;42.600;23.028;2022-10-30T08:21:01;15.97;;;9.83;;
11344;SDS011;5727;42.600;23.028;2022-10-30T08:23:27;19.33;;;12.40;;
11344;SDS011;5727;42.600;23.028;2022-10-30T08:25:55;13.53;;;10.17;;
11344;SDS011;5727;42.600;23.028;2022-10-30T08:28:24;18.63;;;10.40;;
11344;SDS011;5727;42.600;23.028;2022-10-30T08:30:51;16.70;;;10.60;;
11344;SDS011;5727;42.600;23.028;2022-10-30T08:33:17;13.33;;;10.20;;
11344;SDS011;5727;42.600;23.028;2022-10-30T08:35:47;17.77;;;10.10;;
11344;SDS011;5727;42.600;23.028;2022-10-30T08:38:16;18.43;;;10.10;;
11344;SDS011;5727;42.600;23.028;2022-10-30T08:40:44;14.57;;;8.60;;
11344;SDS011;5727;42.600;23.028;2022-10-30T08:43:10;11.97;;;8.03;;
11344;SDS011;5727;42.600;23.028;2022-10-30T08:45:37;10.20;;;8.00;;
11344;SDS011;5727;42.600;23.028;2022-10-30T08:48:05;10.70;;;7.57;;
11344;SDS011;5727;42.600;23.028;2022-10-30T08:50:32;11.23;;;6.37;;
11344;SDS011;5727;42.600;23.028;2022-10-30T08:53:00;14.10;;;7.17;;
11344;SDS011;5727;42.600;23.028;2022-10-30T08:55:29;9.40;;;5.73;;
11344;SDS011;5727;42.600;23.028;2022-10-30T08:57:56;10.50;;;6.90;;
11344;SDS011;5727;42.600;23.028;2022-10-30T09:00:23;12.47;;;7.70;;
11344;SDS011;5727;42.600;23.028;2022-10-30T09:02:51;15.50;;;8.20;;
11344;SDS011;5727;42.600;23.028;2022-10-30T09:05:18;13.03;;;8.00;;
11344;SDS011;5727;42.600;23.028;2022-10-30T09:07:45;17.57;;;8.07;;
11344;SDS011;5727;42.600;23.028;2022-10-30T09:10:12;13.07;;;8.20;;
11344;SDS011;5727;42.600;23.028;2022-10-30T09:12:41;12.33;;;8.03;;
11344;SDS011;5727;42.600;23.028;2022-10-30T09:15:08;12.27;;;7.07;;
11344;SDS011;5727;42.600;23.028;2022-10-30T09:17:35;13.47;;;8.03;;
11344;SDS011;5727;42.600;23.028;2022-10-30T09:20:02;12.93;;;7.43;;
11344;SDS011;5727;42.600;23.028;2022-10-30T09:22:29;13.87;;;7.70;;
11344;SDS011;5727;42.600;23.028;2022-10-30T09:24:55;18.00;;;7.40;;
11344;SDS011;5727;42.600;23.028;2022-10-30T09:27:22;12.80;;;7.03;;
11344;SDS011;5727;42.600;23.028;2022-10-30T09:29:50;12.03;;;7.10;;
11344;SDS011;5727;42.600;23.028;2022-10-30T09:32:17;12.27;;;6.80;;
11344;SDS011;5727;42.600;23.028;2022-10-30T09:34:44;9.13;;;5.83;;
11344;SDS011;5727;42.600;23.028;2022-10-30T09:37:10;13.77;;;6.07;;
11344;SDS011;5727;42.600;23.028;2022-10-30T09:39:37;13.60;;;6.57;;
11344;SDS011;5727;42.600;23.028;2022-10-30T09:42:11;11.40;;;6.07;;
11344;SDS011;5727;42.600;23.028;2022-10-30T09:45:05;7.77;;;5.40;;
11344;SDS011;5727;42.600;23.028;2022-10-30T09:47:51;7.30;;;5.17;;
11344;SDS011;5727;42.600;23.028;2022-10-30T09:50:30;7.73;;;4.70;;
11344;SDS011;5727;42.600;23.028;2022-10-30T09:53:02;7.00;;;2.77;;
11344;SDS011;5727;42.600;23.028;2022-10-30T09:55:39;4.07;;;2.60;;
11344;SDS011;5727;42.600;23.028;2022-10-30T09:58:15;5.40;;;3.43;;
11344;SDS011;5727;42.600;23.028;2022-10-30T10:00:51;7.13;;;4.00;;
11344;SDS011;5727;42.600;23.028;2022-10-30T10:03:32;7.13;;;3.50;;
11344;SDS011;5727;42.600;23.028;2022-10-30T10:06:10;5.13;;;3.00;;
11344;SDS011;5727;42.600;23.028;2022-10-30T10:08:41;4.43;;;2.93;;
11344;SDS011;5727;42.600;23.028;2022-10-30T10:11:13;3.70;;;2.30;;
11344;SDS011;5727;42.600;23.028;2022-10-30T10:13:45;6.83;;;2.60;;
11344;SDS011;5727;42.600;23.028;2022-10-30T10:16:17;6.57;;;3.27;;
11344;SDS011;5727;42.600;23.028;2022-10-30T10:18:46;4.97;;;3.87;;
11344;SDS011;5727;42.600;23.028;2022-10-30T10:21:21;5.63;;;3.77;;
11344;SDS011;5727;42.600;23.028;2022-10-30T10:23:50;6.20;;;2.83;;
11344;SDS011;5727;42.600;23.028;2022-10-30T10:26:23;5.87;;;3.10;;
11344;SDS011;5727;42.600;23.028;2022-10-30T10:28:57;5.60;;;3.30;;
11344;SDS011;5727;42.600;23.028;2022-10-30T10:31:41;6.30;;;2.70;;
11344;SDS011;5727;42.600;23.028;2022-10-30T10:37:15;4.63;;;2.40;;
11344;SDS011;5727;42.600;23.028;2022-10-30T10:39:59;4.57;;;2.17;;
11344;SDS011;5727;42.600;23.028;2022-10-30T10:42:38;5.90;;;2.50;;
11344;SDS011;5727;42.600;23.028;2022-10-30T10:45:16;3.97;;;2.83;;
11344;SDS011;5727;42.600;23.028;2022-10-30T10:47:56;3.80;;;2.13;;
11344;SDS011;5727;42.600;23.028;2022-10-30T10:50:46;4.00;;;2.60;;
11344;SDS011;5727;42.600;23.028;2022-10-30T10:53:17;5.23;;;2.03;;
11344;SDS011;5727;42.600;23.028;2022-10-30T10:55:48;5.17;;;2.13;;
11344;SDS011;5727;42.600;23.028;2022-10-30T10:58:21;5.90;;;2.73;;
11344;SDS011;5727;42.600;23.028;2022-10-30T11:00:52;3.93;;;1.97;;
11344;SDS011;5727;42.600;23.028;2022-10-30T11:03:24;7.43;;;3.40;;
11344;SDS011;5727;42.600;23.028;2022-10-30T11:05:55;5.17;;;1.50;;
11344;SDS011;5727;42.600;23.028;2022-10-30T11:08:29;2.13;;;0.90;;
11344;SDS011;5727;42.600;23.028;2022-10-30T11:10:57;5.23;;;1.10;;
11344;SDS011;5727;42.600;23.028;2022-10-30T11:13:26;1.60;;;0.80;;
11344;SDS011;5727;42.600;23.028;2022-10-30T11:15:57;1.30;;;0.83;;
11344;SDS011;5727;42.600;23.028;2022-10-30T11:18:33;1.73;;;1.00;;
11344;SDS011;5727;42.600;23.028;2022-10-30T11:21:02;1.33;;;0.70;;
11344;SDS011;5727;42.600;23.028;2022-10-30T11:23:36;5.20;;;1.00;;
11344;SDS011;5727;42.600;23.028;2022-10-30T11:28:51;1.67;;;0.73;;
11344;SDS011;5727;42.600;23.028;2022-10-30T11:31:22;2.83;;;0.70;;
11344;SDS011;5727;42.600;23.028;2022-10-30T11:33:53;4.37;;;1.27;;
11344;SDS011;5727;42.600;23.028;2022-10-30T11:36:21;1.63;;;0.67;;
11344;SDS011;5727;42.600;23.028;2022-10-30T11:38:48;3.90;;;0.70;;
11344;SDS011;5727;42.600;23.028;2022-10-30T11:41:15;2.97;;;0.80;;
11344;SDS011;5727;42.600;23.028;2022-10-30T11:43:43;2.77;;;0.50;;
11344;SDS011;5727;42.600;23.028;2022-10-30T11:46:19;3.27;;;0.80;;
11344;SDS011;5727;42.600;23.028;2022-10-30T11:48:48;3.73;;;0.70;;
11344;SDS011;5727;42.600;23.028;2022-10-30T11:51:29;1.47;;;0.70;;
11344;SDS011;5727;42.600;23.028;2022-10-30T11:53:59;1.87;;;0.77;;
11344;SDS011;5727;42.600;23.028;2022-10-30T11:56:26;4.50;;;1.03;;
11344;SDS011;5727;42.600;23.028;2022-10-30T11:58:54;2.63;;;0.80;;
11344;SDS011;5727;42.600;23.028;2022-10-30T12:01:23;2.57;;;0.93;;
11344;SDS011;5727;42.600;23.028;2022-10-30T12:03:52;1.47;;;0.77;;
11344;SDS011;5727;42.600;23.028;2022-10-30T12:06:25;2.97;;;0.83;;
11344;SDS011;5727;42.600;23.028;2022-10-30T12:09:01;1.73;;;0.60;;
11344;SDS011;5727;42.600;23.028;2022-10-30T12:11:30;2.47;;;0.80;;
11344;SDS011;5727;42.600;23.028;2022-10-30T12:13:58;1.80;;;0.60;;
11344;SDS011;5727;42.600;23.028;2022-10-30T12:16:25;1.63;;;0.70;;
11344;SDS011;5727;42.600;23.028;2022-10-30T12:18:54;1.50;;;0.77;;
11344;SDS011;5727;42.600;23.028;2022-10-30T12:21:25;6.43;;;1.10;;
11344;SDS011;5727;42.600;23.028;2022-10-30T12:26:44;0.60;;;0.40;;
11344;SDS011;5727;42.600;23.028;2022-10-30T12:29:13;4.40;;;0.50;;
11344;SDS011;5727;42.600;23.028;2022-10-30T12:31:43;1.83;;;0.60;;
11344;SDS011;5727;42.600;23.028;2022-10-30T12:34:20;4.07;;;0.60;;
11344;SDS011;5727;42.600;23.028;2022-10-30T12:36:55;1.40;;;0.43;;
11344;SDS011;5727;42.600;23.028;2022-10-30T12:39:32;2.47;;;0.57;;
11344;SDS011;5727;42.600;23.028;2022-10-30T12:42:10;3.57;;;0.93;;
11344;SDS011;5727;42.600;23.028;2022-10-30T12:44:40;4.57;;;1.00;;
11344;SDS011;5727;42.600;23.028;2022-10-30T12:47:11;4.30;;;0.80;;
11344;SDS011;5727;42.600;23.028;2022-10-30T12:49:45;7.50;;;1.53;;
11344;SDS011;5727;42.600;23.028;2022-10-30T12:52:16;4.43;;;0.77;;
11344;SDS011;5727;42.600;23.028;2022-10-30T12:54:48;2.75;;;0.73;;
11344;SDS011;5727;42.600;23.028;2022-10-30T12:57:21;4.97;;;0.63;;
11344;SDS011;5727;42.600;23.028;2022-10-30T12:59:56;2.10;;;0.50;;
11344;SDS011;5727;42.600;23.028;2022-10-30T13:05:18;3.40;;;0.52;;
11344;SDS011;5727;42.600;23.028;2022-10-30T13:07:51;3.63;;;0.90;;
11344;SDS011;5727;42.600;23.028;2022-10-30T13:10:27;1.98;;;0.47;;
11344;SDS011;5727;42.600;23.028;2022-10-30T13:12:58;3.70;;;0.70;;
11344;SDS011;5727;42.600;23.028;2022-10-30T13:15:32;2.50;;;0.50;;
11344;SDS011;5727;42.600;23.028;2022-10-30T13:18:08;5.40;;;0.70;;
11344;SDS011;5727;42.600;23.028;2022-10-30T13:20:40;3.10;;;0.88;;
11344;SDS011;5727;42.600;23.028;2022-10-30T13:23:13;4.85;;;0.82;;
11344;SDS011;5727;42.600;23.028;2022-10-30T13:25:49;2.20;;;0.63;;
11344;SDS011;5727;42.600;23.028;2022-10-30T13:28:25;3.42;;;0.68;;
11344;SDS011;5727;42.600;23.028;2022-10-30T13:30:58;2.10;;;0.60;;
11344;SDS011;5727;42.600;23.028;2022-10-30T13:33:34;4.57;;;1.20;;
11344;SDS011;5727;42.600;23.028;2022-10-30T13:36:06;4.07;;;0.80;;
11344;SDS011;5727;42.600;23.028;2022-10-30T13:38:41;3.03;;;0.52;;
11344;SDS011;5727;42.600;23.028;2022-10-30T13:41:18;1.77;;;0.80;;
11344;SDS011;5727;42.600;23.028;2022-10-30T13:43:54;4.22;;;0.65;;
11344;SDS011;5727;42.600;23.028;2022-10-30T13:46:32;4.90;;;0.93;;
11344;SDS011;5727;42.600;23.028;2022-10-30T13:49:24;6.18;;;1.13;;
11344;SDS011;5727;42.600;23.028;2022-10-30T13:52:01;7.72;;;0.88;;
11344;SDS011;5727;42.600;23.028;2022-10-30T13:54:38;7.90;;;1.42;;
11344;SDS011;5727;42.600;23.028;2022-10-30T13:57:10;5.75;;;1.00;;
11344;SDS011;5727;42.600;23.028;2022-10-30T13:59:47;4.13;;;1.23;;
11344;SDS011;5727;42.600;23.028;2022-10-30T14:02:24;4.03;;;1.13;;
11344;SDS011;5727;42.600;23.028;2022-10-30T14:05:03;7.03;;;1.07;;
11344;SDS011;5727;42.600;23.028;2022-10-30T14:07:40;9.00;;;1.87;;
11344;SDS011;5727;42.600;23.028;2022-10-30T14:10:14;6.97;;;2.00;;
11344;SDS011;5727;42.600;23.028;2022-10-30T14:13:03;5.17;;;1.97;;
11344;SDS011;5727;42.600;23.028;2022-10-30T14:15:40;9.43;;;1.70;;
11344;SDS011;5727;42.600;23.028;2022-10-30T14:18:27;6.20;;;1.43;;
11344;SDS011;5727;42.600;23.028;2022-10-30T14:24:04;5.33;;;1.60;;
11344;SDS011;5727;42.600;23.028;2022-10-30T14:26:38;5.97;;;2.00;;
11344;SDS011;5727;42.600;23.028;2022-10-30T14:34:59;2.83;;;1.60;;
11344;SDS011;5727;42.600;23.028;2022-10-30T14:40:31;5.93;;;3.00;;
11344;SDS011;5727;42.600;23.028;2022-10-30T14:43:02;12.53;;;1.90;;
11344;SDS011;5727;42.600;23.028;2022-10-30T14:45:40;4.77;;;1.60;;
11344;SDS011;5727;42.600;23.028;2022-10-30T14:48:11;5.90;;;2.20;;
11344;SDS011;5727;42.600;23.028;2022-10-30T14:50:55;7.77;;;2.07;;
11344;SDS011;5727;42.600;23.028;2022-10-30T14:53:34;8.07;;;2.20;;
11344;SDS011;5727;42.600;23.028;2022-10-30T14:56:17;5.30;;;1.83;;
11344;SDS011;5727;42.600;23.028;2022-10-30T14:59:09;7.50;;;2.07;;
11344;SDS011;5727;42.600;23.028;2022-10-30T15:01:49;5.23;;;2.00;;
11344;SDS011;5727;42.600;23.028;2022-10-30T15:04:21;4.63;;;2.70;;
11344;SDS011;5727;42.600;23.028;2022-10-30T15:06:59;6.10;;;2.60;;
11344;SDS011;5727;42.600;23.028;2022-10-30T15:09:40;4.27;;;2.60;;
11344;SDS011;5727;42.600;23.028;2022-10-30T15:15:10;6.63;;;2.97;;
11344;SDS011;5727;42.600;23.028;2022-10-30T15:17:40;7.27;;;3.60;;